Time;durP1;ratioP1;P1;durP2;ratioP2;P2;SDS_P1;SDS_P2;PMS_P1;PMS_P2;Temp;Humidity;BMP_temperature;BMP_pressure;BME280_temperature;BME280_humidity;BME280_pressure;Samples;Min_cycle;Max_cycle;Signal;HPM_P1;HPM_P2
2024/01/24 00:01:39;;;;;;;8.02;7.22;;;10.80;99.90;;;;;;5005667;28;20292;-76
2024/01/24 00:04:07;;;;;;;6.43;5.72;;;10.90;99.90;;;;;;5003172;28;20293;-76
2024/01/24 00:06:34;;;;;;;9.48;7.20;;;10.90;99.90;;;;;;5009386;28;20255;-74
2024/01/24 00:09:01;;;;;;;8.90;6.68;;;10.90;99.90;;;;;;5009912;28;20195;-76
2024/01/24 00:11:29;;;;;;;7.40;6.70;;;11.00;99.90;;;;;;5008269;28;20303;-75
2024/01/24 00:13:56;;;;;;;7.70;6.60;;;11.10;99.90;;;;;;5001064;28;20226;-75
2024/01/24 00:16:23;;;;;;;6.95;6.35;;;11.10;99.90;;;;;;4999977;28;20212;-78
2024/01/24 00:18:50;;;;;;;7.35;6.63;;;11.10;99.90;;;;;;5012340;28;20201;-77
2024/01/24 00:21:18;;;;;;;7.50;6.80;;;11.10;99.90;;;;;;5010620;28;20238;-76
2024/01/24 00:23:45;;;;;;;10.30;7.00;;;11.10;99.90;;;;;;5004646;28;20229;-76
2024/01/24 00:26:12;;;;;;;10.30;7.70;;;11.20;99.90;;;;;;5003015;28;20206;-76
2024/01/24 00:28:40;;;;;;;10.15;7.53;;;11.20;99.90;;;;;;5008672;28;20287;-75
2024/01/24 00:31:07;;;;;;;8.38;6.80;;;11.20;99.90;;;;;;5001654;28;20220;-75
2024/01/24 00:33:34;;;;;;;10.05;8.23;;;11.30;99.90;;;;;;5009343;28;20234;-75
2024/01/24 00:36:01;;;;;;;10.60;8.48;;;11.30;99.90;;;;;;5011688;28;20622;-77
2024/01/24 00:38:29;;;;;;;7.75;7.05;;;11.30;99.90;;;;;;5008181;28;20624;-75
2024/01/24 00:40:56;;;;;;;7.93;7.13;;;11.40;99.90;;;;;;5001781;28;20225;-75
2024/01/24 00:43:23;;;;;;;9.00;8.10;;;11.40;99.90;;;;;;5013601;28;20315;-76
2024/01/24 00:45:50;;;;;;;13.00;8.95;;;11.40;99.90;;;;;;5000663;28;20229;-75
2024/01/24 00:48:17;;;;;;;8.63;7.43;;;11.40;99.90;;;;;;5004659;28;20249;-76
2024/01/24 00:50:44;;;;;;;10.82;9.73;;;11.40;99.90;;;;;;4999284;28;20241;-77
2024/01/24 00:53:16;;;;;;;8.73;7.70;;;11.40;99.90;;;;;;5005544;28;20232;-75
2024/01/24 00:55:45;;;;;;;10.15;9.15;;;11.40;99.90;;;;;;5004793;28;20241;-77
2024/01/24 00:58:12;;;;;;;10.27;8.15;;;11.50;99.90;;;;;;5009215;28;20554;-76
2024/01/24 01:00:39;;;;;;;8.45;7.55;;;11.50;99.90;;;;;;5019177;28;20201;-77
2024/01/24 01:03:09;;;;;;;8.55;7.20;;;11.50;99.90;;;;;;5014338;28;20253;-75
2024/01/24 01:05:37;;;;;;;12.70;8.02;;;11.50;99.90;;;;;;5008159;28;20201;-76
2024/01/24 01:08:05;;;;;;;10.00;9.00;;;11.50;99.90;;;;;;5007563;28;20305;-77
2024/01/24 01:10:32;;;;;;;9.95;9.00;;;11.60;99.90;;;;;;4995587;28;20234;-76
2024/01/24 01:13:01;;;;;;;11.60;8.38;;;11.60;99.90;;;;;;5010169;28;20628;-77
2024/01/24 01:15:28;;;;;;;12.93;8.70;;;11.60;99.90;;;;;;4999795;28;20649;-77
2024/01/24 01:17:55;;;;;;;11.75;10.68;;;11.60;99.90;;;;;;5004447;28;20202;-76
2024/01/24 01:20:22;;;;;;;12.98;10.38;;;11.60;99.90;;;;;;4999502;28;20750;-74
2024/01/24 01:22:49;;;;;;;10.57;9.13;;;11.60;99.90;;;;;;5000347;28;20233;-76
2024/01/24 01:25:16;;;;;;;12.60;10.90;;;11.70;99.90;;;;;;4996679;28;20588;-76
2024/01/24 01:27:43;;;;;;;11.00;9.27;;;11.70;99.90;;;;;;5009478;28;20583;-76
2024/01/24 01:30:12;;;;;;;14.88;11.68;;;11.70;99.90;;;;;;5006118;28;20617;-78
2024/01/24 01:32:39;;;;;;;16.98;11.18;;;11.70;99.90;;;;;;5002976;28;20297;-76
2024/01/24 01:35:07;;;;;;;13.98;11.85;;;11.70;99.90;;;;;;5006043;28;20610;-75
2024/01/24 01:37:34;;;;;;;12.25;10.10;;;11.70;99.90;;;;;;5006385;28;20243;-75
2024/01/24 01:40:01;;;;;;;13.02;11.68;;;11.80;99.90;;;;;;5008425;28;20664;-75
2024/01/24 01:42:28;;;;;;;11.88;10.57;;;11.80;99.90;;;;;;5009948;28;20225;-75
2024/01/24 01:44:55;;;;;;;13.02;9.27;;;11.80;99.90;;;;;;5000656;28;20638;-75
2024/01/24 01:47:25;;;;;;;13.25;9.93;;;11.80;99.90;;;;;;5000418;28;20201;-75
2024/01/24 01:49:53;;;;;;;11.07;8.75;;;11.90;99.90;;;;;;4999644;28;20285;-74
2024/01/24 01:52:21;;;;;;;10.20;8.50;;;11.90;99.90;;;;;;5001626;28;20226;-77
2024/01/24 01:54:49;;;;;;;8.93;8.02;;;11.90;99.90;;;;;;4998102;28;20264;-79
2024/01/24 01:57:16;;;;;;;8.40;7.70;;;11.90;99.90;;;;;;5006057;28;20297;-74
2024/01/24 01:59:44;;;;;;;10.30;8.30;;;12.00;99.90;;;;;;5011329;28;20660;-77
2024/01/24 02:02:13;;;;;;;9.57;7.70;;;12.00;99.90;;;;;;4999696;28;20696;-74
2024/01/24 02:04:41;;;;;;;8.60;7.70;;;12.00;99.90;;;;;;5003155;28;20221;-74
2024/01/24 02:07:08;;;;;;;9.18;7.55;;;12.00;99.90;;;;;;4998226;28;20206;-74
2024/01/24 02:09:35;;;;;;;7.45;6.30;;;12.00;99.90;;;;;;4996980;28;20198;-77
2024/01/24 02:12:02;;;;;;;7.95;6.38;;;12.00;99.90;;;;;;4997336;28;20612;-77
2024/01/24 02:14:29;;;;;;;6.57;5.97;;;12.10;99.90;;;;;;5006240;28;20228;-77
2024/01/24 02:16:56;;;;;;;6.40;5.80;;;12.10;99.90;;;;;;4998947;28;20722;-75
2024/01/24 02:19:23;;;;;;;6.78;5.80;;;12.10;99.90;;;;;;5001486;28;20206;-75
2024/01/24 02:21:53;;;;;;;6.18;5.68;;;12.10;99.90;;;;;;5010553;28;20221;-76
2024/01/24 02:24:22;;;;;;;6.78;6.13;;;12.20;99.90;;;;;;5004571;28;20577;-77
2024/01/24 02:26:50;;;;;;;6.13;5.53;;;12.20;99.90;;;;;;5003120;28;20209;-75
2024/01/24 02:29:17;;;;;;;5.63;4.65;;;12.20;99.90;;;;;;4999492;28;20603;-76
2024/01/24 02:31:44;;;;;;;6.38;4.95;;;12.20;99.90;;;;;;5009376;28;20202;-76
2024/01/24 02:34:11;;;;;;;5.80;4.97;;;12.20;99.90;;;;;;4997085;28;20254;-74
2024/01/24 02:36:38;;;;;;;4.40;4.10;;;12.30;99.90;;;;;;4996510;28;20214;-75
2024/01/24 02:39:05;;;;;;;5.05;3.40;;;12.30;99.90;;;;;;5008072;28;20247;-75
2024/01/24 02:41:34;;;;;;;3.78;3.35;;;12.30;99.90;;;;;;5001744;28;20206;-76
2024/01/24 02:44:01;;;;;;;4.32;2.60;;;12.40;99.90;;;;;;4994748;28;20205;-75
2024/01/24 02:46:28;;;;;;;3.28;3.00;;;12.40;99.90;;;;;;4995950;28;20210;-77
2024/01/24 02:48:56;;;;;;;4.47;2.40;;;12.40;99.90;;;;;;4994697;28;20217;-75
2024/01/24 02:51:26;;;;;;;3.28;1.98;;;12.50;99.90;;;;;;5001362;28;20201;-76
2024/01/24 02:53:53;;;;;;;2.95;1.70;;;12.50;99.90;;;;;;4996465;28;20737;-74
2024/01/24 02:56:21;;;;;;;2.25;1.98;;;12.50;99.90;;;;;;5004555;28;20256;-76
2024/01/24 02:58:49;;;;;;;2.15;1.50;;;12.50;99.90;;;;;;5000769;28;20264;-73
2024/01/24 03:01:16;;;;;;;2.03;1.35;;;12.50;99.90;;;;;;4993999;28;20557;-75
2024/01/24 03:03:44;;;;;;;1.42;1.20;;;12.50;99.90;;;;;;4996619;28;21293;-74
2024/01/24 03:06:11;;;;;;;2.10;1.90;;;12.50;99.90;;;;;;4997405;28;20228;-74
2024/01/24 03:08:49;;;;;;;1.50;1.40;;;12.50;99.90;;;;;;4998269;28;20680;-77
2024/01/24 03:11:17;;;;;;;5.35;2.38;;;12.60;99.90;;;;;;5011538;28;20233;-76
2024/01/24 03:13:45;;;;;;;2.33;2.00;;;12.50;99.90;;;;;;5003637;28;20297;-75
2024/01/24 03:16:14;;;;;;;2.05;1.48;;;12.50;99.90;;;;;;4995904;28;20202;-75
2024/01/24 03:18:42;;;;;;;2.47;1.50;;;12.50;99.90;;;;;;5000887;28;20213;-75
2024/01/24 03:21:10;;;;;;;2.15;0.90;;;12.50;99.90;;;;;;5004999;28;20212;-76
2024/01/24 03:23:38;;;;;;;1.10;1.00;;;12.40;99.90;;;;;;4998652;28;20234;-75
2024/01/24 03:26:06;;;;;;;3.17;1.40;;;12.40;99.90;;;;;;5003553;28;20709;-77
2024/01/24 03:28:33;;;;;;;2.72;1.45;;;12.40;99.90;;;;;;5004515;28;20251;-74
2024/01/24 03:31:00;;;;;;;1.55;1.08;;;12.40;99.90;;;;;;5012308;28;20296;-75
2024/01/24 03:33:29;;;;;;;0.70;0.70;;;12.40;99.90;;;;;;5006255;28;20221;-75
2024/01/24 03:35:56;;;;;;;1.15;0.75;;;12.30;99.90;;;;;;5018989;28;20275;-78
2024/01/24 03:38:23;;;;;;;1.60;0.65;;;12.20;99.90;;;;;;5012051;28;20233;-76
2024/01/24 03:40:50;;;;;;;2.35;0.80;;;12.20;99.90;;;;;;5015949;28;20209;-77
2024/01/24 03:43:18;;;;;;;1.17;0.80;;;12.10;99.90;;;;;;5005605;28;20279;-76
2024/01/24 03:45:45;;;;;;;2.53;1.13;;;12.10;99.90;;;;;;5008559;28;20256;-76
2024/01/24 03:48:12;;;;;;;4.40;1.27;;;12.10;99.90;;;;;;5013546;28;20288;-77
2024/01/24 03:50:40;;;;;;;1.10;0.70;;;12.10;99.90;;;;;;5007616;28;20256;-74
2024/01/24 03:53:07;;;;;;;1.75;1.00;;;12.10;99.90;;;;;;5009193;28;20716;-76
2024/01/24 03:55:34;;;;;;;4.60;1.00;;;12.00;99.90;;;;;;4993307;28;20210;-75
2024/01/24 03:58:01;;;;;;;3.83;1.33;;;12.00;99.90;;;;;;4999947;28;20206;-76
2024/01/24 04:00:29;;;;;;;4.63;1.33;;;12.00;99.90;;;;;;5000046;28;20214;-77
2024/01/24 04:02:56;;;;;;;8.07;2.38;;;12.10;99.90;;;;;;4999478;28;20308;-75
2024/01/24 04:05:24;;;;;;;3.28;1.23;;;12.10;99.90;;;;;;4999733;28;20216;-74
2024/01/24 04:07:53;;;;;;;3.63;1.40;;;12.20;99.90;;;;;;4999989;28;20213;-74
2024/01/24 04:10:20;;;;;;;3.70;1.23;;;12.20;99.90;;;;;;5001168;28;20216;-77
2024/01/24 04:12:47;;;;;;;4.60;2.05;;;12.20;99.90;;;;;;5000684;28;20226;-75
2024/01/24 04:15:13;;;;;;;10.43;3.20;;;12.20;99.90;;;;;;4997327;28;20751;-76
2024/01/24 04:17:40;;;;;;;3.97;1.60;;;12.20;99.90;;;;;;5004324;28;20256;-76
2024/01/24 04:20:08;;;;;;;5.75;1.70;;;12.20;99.90;;;;;;5003001;28;20206;-75
2024/01/24 04:22:35;;;;;;;10.65;1.85;;;12.20;99.90;;;;;;5001691;28;20314;-76
2024/01/24 04:25:04;;;;;;;11.35;3.33;;;12.20;99.90;;;;;;4993073;28;20618;-77
2024/01/24 04:27:31;;;;;;;11.45;2.75;;;12.20;99.90;;;;;;5001345;28;20205;-75
2024/01/24 04:29:58;;;;;;;9.95;4.38;;;12.20;99.90;;;;;;5012718;28;20275;-74
2024/01/24 04:32:25;;;;;;;6.57;2.53;;;12.20;99.90;;;;;;4996853;28;20708;-77
2024/01/24 04:34:52;;;;;;;13.82;4.13;;;12.20;99.90;;;;;;5006950;28;20591;-75
2024/01/24 04:37:19;;;;;;;8.77;2.50;;;12.20;99.90;;;;;;4993859;28;20206;-76
2024/01/24 04:39:46;;;;;;;10.77;2.60;;;12.20;99.90;;;;;;5010720;28;20209;-77
2024/01/24 04:42:14;;;;;;;11.98;3.00;;;12.20;99.90;;;;;;5004336;28;20226;-77
2024/01/24 04:44:41;;;;;;;16.88;5.43;;;12.20;99.90;;;;;;5001662;28;20197;-75
2024/01/24 04:47:08;;;;;;;9.35;3.55;;;12.20;99.90;;;;;;5003959;28;20210;-77
2024/01/24 04:49:35;;;;;;;15.73;5.70;;;12.20;99.90;;;;;;5000322;28;20194;-78
2024/01/24 04:52:03;;;;;;;10.10;2.97;;;12.20;99.90;;;;;;5005719;28;20287;-75
2024/01/24 04:54:36;;;;;;;16.73;4.50;;;12.20;99.90;;;;;;5001180;28;20317;-77
2024/01/24 04:57:03;;;;;;;16.25;3.70;;;12.10;99.90;;;;;;5013145;28;20212;-77
2024/01/24 04:59:32;;;;;;;16.02;3.90;;;12.10;99.90;;;;;;5008382;28;20205;-76
2024/01/24 05:01:59;;;;;;;9.95;3.45;;;12.20;99.90;;;;;;5008028;28;20593;-74
2024/01/24 05:04:26;;;;;;;16.00;4.60;;;12.20;99.90;;;;;;4994965;28;20588;-76
2024/01/24 05:06:53;;;;;;;14.45;3.80;;;12.20;99.90;;;;;;4998359;28;20206;-75
2024/01/24 05:09:20;;;;;;;13.90;3.17;;;12.20;99.90;;;;;;5006208;28;20597;-77
2024/01/24 05:11:47;;;;;;;11.02;3.50;;;12.30;99.90;;;;;;5007796;28;20229;-76
2024/01/24 05:14:14;;;;;;;15.02;3.63;;;12.30;99.90;;;;;;4999921;28;20226;-75
2024/01/24 05:16:43;;;;;;;16.13;4.15;;;12.30;99.90;;;;;;5003656;28;20324;-76
2024/01/24 05:19:10;;;;;;;18.25;5.10;;;12.20;99.90;;;;;;4997202;28;20198;-75
2024/01/24 05:21:41;;;;;;;12.98;4.35;;;12.20;99.90;;;;;;5001554;28;20245;-77
2024/01/24 05:24:10;;;;;;;20.30;5.18;;;12.20;99.90;;;;;;5004162;28;20689;-76
2024/01/24 05:26:38;;;;;;;12.20;3.88;;;12.20;99.90;;;;;;5001230;28;20626;-77
2024/01/24 05:29:05;;;;;;;12.73;3.28;;;12.10;99.90;;;;;;4998760;28;20557;-78
2024/01/24 05:31:34;;;;;;;16.38;4.00;;;12.00;99.90;;;;;;5000890;28;20218;-75
2024/01/24 05:34:02;;;;;;;17.50;4.30;;;12.00;99.90;;;;;;5000553;28;20308;-76
2024/01/24 05:36:29;;;;;;;21.58;5.00;;;12.00;99.90;;;;;;5009527;28;20213;-76
2024/01/24 05:38:56;;;;;;;15.52;4.47;;;11.90;99.90;;;;;;4999245;28;20292;-77
2024/01/24 05:41:24;;;;;;;13.40;4.35;;;11.80;99.90;;;;;;5005772;28;20209;-75
2024/01/24 05:43:51;;;;;;;12.55;3.42;;;11.70;99.90;;;;;;5009044;28;20236;-77
2024/01/24 05:46:18;;;;;;;24.08;4.85;;;11.70;99.90;;;;;;5004877;28;20209;-76
2024/01/24 05:48:45;;;;;;;24.83;6.43;;;11.70;99.90;;;;;;5012680;28;20263;-75
2024/01/24 05:51:14;;;;;;;20.38;4.63;;;11.50;99.90;;;;;;5002755;28;20653;-75
2024/01/24 05:53:42;;;;;;;12.02;3.47;;;11.30;99.90;;;;;;5002219;28;20229;-76
2024/01/24 05:56:09;;;;;;;13.20;5.55;;;11.20;99.90;;;;;;5008295;28;20207;-73
2024/01/24 05:58:36;;;;;;;11.63;2.58;;;10.90;99.90;;;;;;5005742;28;20240;-76
2024/01/24 06:01:05;;;;;;;7.85;3.20;;;10.70;99.90;;;;;;5008735;28;20201;-77
2024/01/24 06:03:33;;;;;;;12.85;3.45;;;10.60;99.90;;;;;;5004520;28;20226;-76
2024/01/24 06:06:01;;;;;;;15.18;4.13;;;10.60;99.90;;;;;;5008731;28;20648;-78
2024/01/24 06:08:31;;;;;;;10.88;2.60;;;10.50;99.90;;;;;;4996256;28;20689;-77
2024/01/24 06:10:58;;;;;;;12.93;4.75;;;10.50;99.90;;;;;;5016550;28;20225;-79
2024/01/24 06:13:25;;;;;;;16.00;4.20;;;10.50;99.90;;;;;;5015531;28;20253;-75
2024/01/24 06:15:52;;;;;;;12.95;3.53;;;10.50;99.90;;;;;;5016593;28;20252;-76
2024/01/24 06:18:19;;;;;;;10.85;4.38;;;10.50;99.90;;;;;;5021251;28;20210;-77
2024/01/24 06:20:47;;;;;;;16.52;4.47;;;10.50;99.90;;;;;;5026185;28;20201;-76
2024/01/24 06:23:14;;;;;;;12.95;4.40;;;10.60;99.90;;;;;;5008159;28;20226;-76
2024/01/24 06:25:42;;;;;;;15.55;5.22;;;10.60;99.90;;;;;;4998969;28;20201;-74
2024/01/24 06:28:09;;;;;;;19.85;5.00;;;10.60;99.90;;;;;;5000229;28;20217;-75
2024/01/24 06:30:36;;;;;;;11.35;4.35;;;10.70;99.90;;;;;;4999154;28;20205;-78
2024/01/24 06:33:03;;;;;;;19.38;4.50;;;10.70;99.90;;;;;;5000403;28;20287;-74
2024/01/24 06:35:32;;;;;;;17.38;5.22;;;10.70;99.90;;;;;;5007399;28;20285;-76
2024/01/24 06:37:58;;;;;;;24.33;5.03;;;10.70;99.90;;;;;;5007480;28;20276;-79
2024/01/24 06:40:26;;;;;;;20.00;5.70;;;10.80;99.90;;;;;;5009883;28;20213;-75
2024/01/24 06:42:54;;;;;;;18.75;4.13;;;10.70;99.90;;;;;;5005237;28;20279;-75
2024/01/24 06:45:22;;;;;;;19.83;4.95;;;10.70;99.90;;;;;;5000170;28;20265;-77
2024/01/24 06:47:49;;;;;;;27.38;6.80;;;10.80;99.90;;;;;;5004791;28;20205;-75
2024/01/24 06:50:17;;;;;;;30.25;6.82;;;10.80;99.90;;;;;;5001311;28;20293;-76
2024/01/24 06:52:45;;;;;;;27.27;7.43;;;10.90;99.90;;;;;;5002951;28;20316;-74
2024/01/24 06:55:13;;;;;;;25.77;5.82;;;10.90;99.90;;;;;;5009876;28;20246;-75
2024/01/24 06:57:40;;;;;;;22.20;6.30;;;10.90;99.90;;;;;;5003022;28;20297;-76
2024/01/24 07:00:10;;;;;;;23.30;7.70;;;11.00;99.90;;;;;;4998991;28;20545;-75
2024/01/24 07:02:38;;;;;;;26.33;7.10;;;11.00;99.90;;;;;;5003031;28;20230;-77
2024/01/24 07:05:05;;;;;;;24.25;8.07;;;11.10;99.90;;;;;;4999395;28;20189;-75
2024/01/24 07:07:33;;;;;;;22.67;5.88;;;11.10;99.90;;;;;;5000137;28;20675;-76
2024/01/24 07:10:00;;;;;;;26.42;7.90;;;11.20;99.90;;;;;;5003019;28;20198;-76
2024/01/24 07:12:27;;;;;;;28.52;7.03;;;11.20;99.90;;;;;;5000353;28;20268;-75
2024/01/24 07:14:54;;;;;;;26.40;6.78;;;11.20;99.90;;;;;;5000619;28;20307;-76
2024/01/24 07:17:22;;;;;;;25.90;7.32;;;11.20;99.90;;;;;;5006832;28;20307;-78
2024/01/24 07:19:50;;;;;;;31.85;7.22;;;11.30;99.90;;;;;;5000247;28;20212;-76
2024/01/24 07:22:17;;;;;;;22.67;7.57;;;11.30;99.90;;;;;;5000417;28;20247;-74
2024/01/24 07:24:45;;;;;;;27.40;6.70;;;11.30;99.90;;;;;;5002991;28;20198;-74
2024/01/24 07:27:12;;;;;;;31.00;7.10;;;11.40;99.90;;;;;;4995323;28;20329;-77
2024/01/24 07:29:40;;;;;;;22.92;7.70;;;11.40;99.90;;;;;;5005411;28;20216;-77
2024/01/24 07:32:07;;;;;;;21.27;8.00;;;11.40;99.90;;;;;;5003886;28;20252;-78
2024/01/24 07:34:38;;;;;;;20.88;8.25;;;11.40;99.90;;;;;;5000006;28;20229;-76
2024/01/24 07:37:05;;;;;;;27.40;7.88;;;11.40;99.90;;;;;;5009640;28;20291;-75
2024/01/24 07:39:32;;;;;;;23.42;6.35;;;11.40;99.90;;;;;;5011773;28;20201;-75
2024/01/24 07:42:01;;;;;;;27.83;6.07;;;11.40;99.90;;;;;;5003221;28;20221;-76
2024/01/24 07:44:29;;;;;;;27.98;6.55;;;11.50;99.90;;;;;;4994940;28;20210;-77
2024/01/24 07:46:56;;;;;;;20.15;5.47;;;11.40;99.90;;;;;;5005825;28;20202;-80
2024/01/24 07:49:23;;;;;;;17.23;4.70;;;11.40;99.90;;;;;;4994035;28;20214;-77
2024/01/24 07:51:51;;;;;;;22.52;5.25;;;11.50;99.90;;;;;;5002322;28;20268;-76
2024/01/24 07:54:18;;;;;;;20.35;7.13;;;11.40;99.90;;;;;;4996213;28;20253;-79
2024/01/24 07:56:45;;;;;;;21.13;5.75;;;11.50;99.90;;;;;;4999821;28;20579;-77
2024/01/24 07:59:15;;;;;;;20.00;7.07;;;11.50;99.90;;;;;;4994635;28;20330;-75
2024/01/24 08:01:46;;;;;;;22.33;5.55;;;11.50;99.90;;;;;;5005449;28;20212;-74
2024/01/24 08:04:14;;;;;;;30.33;7.68;;;11.50;99.90;;;;;;4993946;28;20301;-75
2024/01/24 08:06:41;;;;;;;25.13;6.32;;;11.50;99.90;;;;;;5003185;28;20209;-75
2024/01/24 08:09:10;;;;;;;23.23;6.63;;;11.50;99.90;;;;;;5007915;28;20220;-75
2024/01/24 08:11:37;;;;;;;21.40;7.70;;;11.50;99.90;;;;;;4997687;28;20202;-74
2024/01/24 08:14:04;;;;;;;33.35;6.78;;;11.50;99.90;;;;;;5009845;28;20292;-76
2024/01/24 08:16:32;;;;;;;25.25;7.90;;;11.50;99.90;;;;;;5006234;28;20225;-74
2024/01/24 08:19:00;;;;;;;18.20;6.15;;;11.50;99.90;;;;;;5006415;28;20214;-75
2024/01/24 08:21:28;;;;;;;23.13;7.68;;;11.60;99.90;;;;;;4998854;28;20727;-76
2024/01/24 08:23:55;;;;;;;18.02;6.53;;;11.60;99.90;;;;;;4997563;28;20214;-75
2024/01/24 08:26:23;;;;;;;29.67;8.52;;;11.60;99.90;;;;;;4999105;28;20229;-74
2024/01/24 08:28:52;;;;;;;21.02;8.32;;;11.50;99.90;;;;;;5001932;28;20272;-74
2024/01/24 08:31:19;;;;;;;30.30;7.85;;;11.50;99.90;;;;;;4998692;28;20202;-76
2024/01/24 08:33:46;;;;;;;27.13;8.63;;;11.50;99.90;;;;;;5013148;28;20225;-76
2024/01/24 08:36:13;;;;;;;21.25;6.60;;;11.50;99.90;;;;;;5012509;28;20237;-75
2024/01/24 08:38:40;;;;;;;19.02;6.55;;;11.50;99.90;;;;;;5006542;28;20202;-74
2024/01/24 08:41:07;;;;;;;30.38;7.07;;;11.50;99.90;;;;;;5006186;28;20244;-73
2024/01/24 08:43:35;;;;;;;23.90;7.50;;;11.50;99.90;;;;;;4997603;28;20234;-73
2024/01/24 08:46:02;;;;;;;26.77;8.32;;;11.50;99.90;;;;;;4996684;28;20199;-76
2024/01/24 08:48:30;;;;;;;18.65;8.60;;;11.50;99.90;;;;;;4999420;28;20242;-76
2024/01/24 08:50:57;;;;;;;23.73;6.32;;;11.60;99.90;;;;;;5002023;28;20220;-76
2024/01/24 08:53:24;;;;;;;24.60;8.95;;;11.60;99.90;;;;;;5008485;28;20218;-76
2024/01/24 08:55:50;;;;;;;37.88;8.98;;;11.60;99.90;;;;;;5012229;28;20226;-75
2024/01/24 08:58:18;;;;;;;29.73;7.53;;;11.70;99.90;;;;;;5013282;28;20249;-78
2024/01/24 09:00:46;;;;;;;15.48;5.40;;;11.60;99.90;;;;;;5015243;28;20210;-75
2024/01/24 09:03:13;;;;;;;29.45;7.70;;;11.60;99.90;;;;;;5016504;28;20225;-75
2024/01/24 09:05:41;;;;;;;22.17;7.18;;;11.60;99.90;;;;;;5006261;28;20197;-77
2024/01/24 09:08:08;;;;;;;31.63;6.80;;;11.70;99.90;;;;;;5004588;28;20236;-75
2024/01/24 09:10:36;;;;;;;30.30;8.88;;;11.70;99.90;;;;;;5008906;28;20240;-74
2024/01/24 09:13:08;;;;;;;21.45;7.65;;;11.60;99.90;;;;;;4998593;28;20229;-74
2024/01/24 09:15:35;;;;;;;30.05;8.52;;;11.70;99.90;;;;;;5004194;28;20276;-74
2024/01/24 09:18:04;;;;;;;22.92;7.03;;;11.70;99.90;;;;;;4994686;28;20662;-74
2024/01/24 09:20:31;;;;;;;25.15;6.43;;;11.70;99.90;;;;;;5000666;28;20205;-75
2024/01/24 09:22:58;;;;;;;27.63;7.47;;;11.70;99.90;;;;;;5001193;28;20256;-74
2024/01/24 09:25:27;;;;;;;20.10;7.03;;;11.60;99.90;;;;;;5001048;28;20221;-73
2024/01/24 09:27:56;;;;;;;19.05;6.60;;;11.60;99.90;;;;;;4999074;28;20684;-73
2024/01/24 09:30:25;;;;;;;35.67;8.55;;;11.70;99.90;;;;;;5007316;28;20220;-73
2024/01/24 09:32:52;;;;;;;19.20;6.32;;;11.70;99.90;;;;;;4997882;28;20225;-73
2024/01/24 09:35:21;;;;;;;20.40;5.68;;;11.70;99.90;;;;;;5007037;28;20280;-72
2024/01/24 09:37:48;;;;;;;27.35;7.75;;;11.70;99.90;;;;;;4998294;28;20246;-74
2024/01/24 09:40:16;;;;;;;22.35;5.93;;;11.80;99.90;;;;;;5002305;28;20210;-74
2024/01/24 09:42:44;;;;;;;30.52;5.95;;;11.80;99.90;;;;;;4997648;28;20226;-74
2024/01/24 09:45:12;;;;;;;23.80;7.50;;;11.90;99.90;;;;;;5002822;28;20209;-73
2024/01/24 09:47:40;;;;;;;24.92;7.70;;;11.80;99.90;;;;;;5008357;28;20202;-75
2024/01/24 09:50:09;;;;;;;20.00;7.00;;;11.70;99.90;;;;;;4999005;28;20296;-74
2024/01/24 09:52:37;;;;;;;30.58;7.80;;;11.70;99.90;;;;;;5001976;28;20759;-80
2024/01/24 09:55:07;;;;;;;25.08;5.53;;;11.70;99.90;;;;;;5006969;28;20343;-77
2024/01/24 09:57:34;;;;;;;22.48;6.90;;;11.70;99.90;;;;;;4996855;28;20657;-77
2024/01/24 10:00:02;;;;;;;26.48;6.32;;;11.60;99.90;;;;;;5005103;28;20704;-76
2024/01/24 10:02:29;;;;;;;24.15;6.65;;;11.70;99.90;;;;;;4996817;28;20258;-74
2024/01/24 10:04:59;;;;;;;24.33;6.38;;;11.70;99.90;;;;;;5012225;28;20648;-74
2024/01/24 10:07:28;;;;;;;27.88;6.72;;;11.70;99.90;;;;;;5002266;28;20587;-74
2024/01/24 10:10:07;;;;;;;26.88;8.80;;;11.70;99.90;;;;;;5004408;28;20282;-74
2024/01/24 10:12:35;;;;;;;20.17;5.30;;;11.70;99.90;;;;;;4997244;28;20325;-73
2024/01/24 10:15:02;;;;;;;34.58;9.23;;;11.80;99.90;;;;;;5000809;28;20265;-76
2024/01/24 10:17:29;;;;;;;26.35;8.45;;;11.70;99.90;;;;;;4999175;28;20248;-73
2024/01/24 10:19:56;;;;;;;25.63;6.47;;;11.70;99.90;;;;;;4994341;28;20633;-75
2024/01/24 10:22:24;;;;;;;24.83;6.90;;;11.70;99.90;;;;;;5003052;28;20230;-74
2024/01/24 10:24:51;;;;;;;24.67;7.45;;;11.70;99.90;;;;;;5000784;28;20213;-75
2024/01/24 10:27:20;;;;;;;23.83;8.32;;;11.60;99.90;;;;;;4999178;28;20201;-76
2024/01/24 10:29:47;;;;;;;25.83;7.03;;;11.60;99.90;;;;;;5007575;28;20205;-75
2024/01/24 10:32:14;;;;;;;32.03;8.07;;;11.70;99.90;;;;;;5001380;28;20237;-75
2024/01/24 10:34:41;;;;;;;28.63;7.65;;;11.70;99.90;;;;;;5001454;28;20206;-74
2024/01/24 10:37:09;;;;;;;27.15;6.95;;;11.70;99.90;;;;;;5007136;28;20225;-74
2024/01/24 10:39:37;;;;;;;30.45;8.48;;;11.70;99.90;;;;;;4998289;28;20206;-76
2024/01/24 10:42:06;;;;;;;27.70;7.25;;;11.60;99.90;;;;;;4998179;28;20233;-76
2024/01/24 10:44:37;;;;;;;27.50;7.85;;;11.70;99.90;;;;;;5006629;28;20605;-74
2024/01/24 10:47:04;;;;;;;24.50;7.00;;;11.80;99.90;;;;;;4998138;28;20279;-75
2024/01/24 10:49:32;;;;;;;20.52;8.10;;;11.70;99.90;;;;;;5000680;28;20202;-76
2024/01/24 10:51:59;;;;;;;24.15;7.22;;;11.60;99.90;;;;;;5010500;28;20782;-75
2024/01/24 10:54:29;;;;;;;27.83;7.85;;;11.60;99.90;;;;;;5007445;28;20216;-75
2024/01/24 10:56:59;;;;;;;26.40;7.30;;;11.60;99.90;;;;;;5007426;28;20232;-75
2024/01/24 10:59:28;;;;;;;22.95;6.43;;;11.60;99.90;;;;;;4993946;28;20551;-74
2024/01/24 11:01:56;;;;;;;19.85;6.70;;;11.60;99.90;;;;;;5000667;28;20249;-74
2024/01/24 11:04:25;;;;;;;28.48;9.20;;;11.60;99.90;;;;;;4997784;28;20673;-75
2024/01/24 11:06:57;;;;;;;25.67;6.13;;;11.70;99.90;;;;;;4998663;28;20199;-75
2024/01/24 11:09:29;;;;;;;22.90;5.75;;;11.70;99.90;;;;;;5005319;28;20563;-76
2024/01/24 11:11:59;;;;;;;33.75;7.20;;;11.70;99.90;;;;;;5000778;28;20700;-74
2024/01/24 11:14:33;;;;;;;26.02;6.70;;;11.70;99.90;;;;;;4997248;28;20214;-75
2024/01/24 11:17:03;;;;;;;19.38;6.90;;;11.60;99.90;;;;;;5006623;28;20231;-74
2024/01/24 11:19:31;;;;;;;28.58;8.27;;;11.60;99.90;;;;;;5008345;28;20209;-75
2024/01/24 11:22:01;;;;;;;29.17;9.07;;;11.60;99.90;;;;;;5002458;28;20313;-75
2024/01/24 11:24:50;;;;;;;19.42;5.90;;;11.50;99.90;;;;;;4999461;28;20304;-76
2024/01/24 11:27:32;;;;;;;23.98;5.93;;;11.60;99.90;;;;;;4999480;28;20202;-77
2024/01/24 11:30:01;;;;;;;21.50;6.00;;;11.60;99.90;;;;;;4998434;28;20205;-74
2024/01/24 11:33:04;;;;;;;19.08;7.93;;;11.60;99.90;;;;;;4996728;28;20252;-74
2024/01/24 11:35:37;;;;;;;29.40;7.22;;;11.60;99.90;;;;;;5011259;28;20283;-75
2024/01/24 11:38:08;;;;;;;26.05;6.40;;;11.60;99.90;;;;;;4997861;28;20268;-75
2024/01/24 11:40:35;;;;;;;21.65;5.70;;;11.50;99.90;;;;;;5008428;28;20237;-75
2024/01/24 11:43:03;;;;;;;27.40;5.72;;;11.40;99.90;;;;;;5000979;28;20308;-74
2024/01/24 11:45:31;;;;;;;21.38;8.30;;;11.50;99.90;;;;;;4999151;28;20207;-74
2024/01/24 11:47:58;;;;;;;26.55;6.65;;;11.50;99.90;;;;;;5010641;28;20202;-74
2024/01/24 11:50:26;;;;;;;19.70;8.73;;;11.50;99.90;;;;;;5014290;28;20257;-76
2024/01/24 11:53:00;;;;;;;18.35;5.40;;;11.50;99.90;;;;;;5018408;28;20230;-76
2024/01/24 11:55:28;;;;;;;18.55;5.85;;;11.50;99.90;;;;;;5015975;28;20228;-75
2024/01/24 11:57:56;;;;;;;24.35;6.55;;;11.60;99.90;;;;;;5002424;28;20210;-76
2024/01/24 12:00:23;;;;;;;23.67;6.40;;;11.50;99.90;;;;;;4998976;28;20610;-76
2024/01/24 12:02:50;;;;;;;20.92;5.57;;;11.50;99.90;;;;;;5002910;28;20348;-73
2024/01/24 12:05:18;;;;;;;21.52;5.88;;;11.60;99.90;;;;;;4996563;28;20209;-73
2024/01/24 12:07:47;;;;;;;17.05;5.30;;;11.60;99.90;;;;;;4996884;28;20248;-75
2024/01/24 12:10:14;;;;;;;18.83;6.32;;;11.60;99.90;;;;;;4998159;28;20209;-75
2024/01/24 12:12:41;;;;;;;19.40;6.63;;;11.60;99.90;;;;;;5003497;28;20221;-75
2024/01/24 12:15:11;;;;;;;15.43;5.18;;;11.60;99.90;;;;;;4996467;28;20206;-73
2024/01/24 12:17:40;;;;;;;22.55;5.22;;;11.60;99.90;;;;;;5004307;28;20783;-73
2024/01/24 12:20:08;;;;;;;19.80;5.65;;;11.60;99.90;;;;;;5002956;28;20328;-77
2024/01/24 12:22:35;;;;;;;27.95;7.00;;;11.60;99.90;;;;;;4996798;28;20339;-74
2024/01/24 12:25:07;;;;;;;26.88;5.55;;;11.60;99.90;;;;;;5006846;28;20205;-75
2024/01/24 12:27:34;;;;;;;33.92;8.15;;;11.50;99.90;;;;;;5005248;28;20209;-74
2024/01/24 12:30:01;;;;;;;29.20;7.00;;;11.50;99.90;;;;;;5007683;28;20209;-75
2024/01/24 12:32:28;;;;;;;25.25;7.05;;;11.60;99.90;;;;;;5001799;28;20300;-73
2024/01/24 12:34:55;;;;;;;26.17;5.82;;;11.60;99.90;;;;;;5000803;28;20309;-74
2024/01/24 12:37:23;;;;;;;19.27;4.97;;;11.60;99.90;;;;;;5003043;28;20222;-77
2024/01/24 12:39:54;;;;;;;31.23;5.95;;;11.60;99.90;;;;;;5002559;28;20250;-76
2024/01/24 12:42:22;;;;;;;21.42;6.90;;;11.60;99.90;;;;;;5008386;28;20648;-74